createdAt,value
2022-11-13T00:01:20.122Z,18.33
2022-11-13T00:03:48.291Z,17.30
2022-11-13T00:06:17.192Z,16.25
2022-11-13T00:08:45.575Z,18.35
2022-11-13T00:11:18.872Z,18.25
2022-11-13T00:13:47.224Z,17.77
2022-11-13T00:16:17.381Z,18.85
2022-11-13T00:18:45.599Z,17.00
2022-11-13T00:21:16.181Z,17.42
2022-11-13T00:23:44.819Z,16.67
2022-11-13T00:26:16.030Z,16.23
2022-11-13T00:28:43.996Z,15.00
2022-11-13T00:31:14.247Z,16.20
2022-11-13T00:36:30.672Z,17.40
2022-11-13T00:38:58.902Z,17.42
2022-11-13T00:41:28.204Z,16.67
2022-11-13T00:43:56.159Z,17.17
2022-11-13T00:46:24.107Z,16.75
2022-11-13T00:48:52.055Z,17.90
2022-11-13T00:51:19.994Z,17.83
2022-11-13T00:53:48.224Z,18.70
2022-11-13T00:56:16.120Z,17.33
2022-11-13T00:58:45.383Z,17.52
2022-11-13T01:01:15.882Z,16.60
2022-11-13T01:03:43.946Z,16.35
2022-11-13T01:06:14.093Z,17.02
2022-11-13T01:08:42.491Z,16.10
2022-11-13T01:11:12.638Z,17.17
2022-11-13T01:13:41.347Z,16.00
2022-11-13T01:16:12.700Z,15.10
2022-11-13T01:18:42.747Z,15.20
2022-11-13T01:21:13.788Z,14.95
2022-11-13T01:23:42.032Z,15.20
2022-11-13T01:26:12.073Z,14.80
2022-11-13T01:28:41.112Z,15.60
2022-11-13T01:31:12.760Z,15.68
2022-11-13T01:33:41.202Z,15.10
2022-11-13T01:36:11.981Z,15.13
2022-11-13T01:38:40.381Z,15.48
2022-11-13T01:41:09.673Z,14.25
2022-11-13T01:43:39.374Z,15.48
2022-11-13T01:46:25.652Z,14.50
2022-11-13T01:48:59.471Z,15.20
2022-11-13T01:51:31.052Z,14.00
2022-11-13T01:54:00.416Z,14.35
2022-11-13T01:56:28.439Z,12.95
2022-11-13T01:59:00.949Z,12.88
2022-11-13T02:01:30.233Z,14.60
2022-11-13T02:03:58.178Z,13.57
2022-11-13T02:06:29.086Z,14.60
2022-11-13T02:08:57.184Z,13.77
2022-11-13T02:11:25.292Z,13.43
2022-11-13T02:13:53.258Z,13.23
2022-11-13T02:16:23.066Z,15.05
2022-11-13T02:18:52.655Z,12.60
2022-11-13T02:21:33.461Z,12.95
2022-11-13T02:24:13.844Z,13.02
2022-11-13T02:26:42.781Z,12.95
2022-11-13T02:29:10.709Z,14.07
2022-11-13T02:31:38.740Z,12.75
2022-11-13T02:34:06.705Z,13.27
2022-11-13T02:36:36.731Z,12.05
2022-11-13T02:39:08.128Z,12.35
2022-11-13T02:41:38.475Z,12.88
2022-11-13T02:44:07.164Z,12.98
2022-11-13T02:46:35.569Z,13.38
2022-11-13T02:49:03.634Z,12.68
2022-11-13T02:51:31.719Z,12.40
2022-11-13T02:53:59.761Z,12.57
2022-11-13T02:56:27.980Z,12.23
2022-11-13T02:58:57.286Z,12.00
2022-11-13T03:01:25.348Z,13.63
2022-11-13T03:03:57.758Z,12.85
2022-11-13T03:06:26.023Z,12.52
2022-11-13T03:08:54.091Z,11.45
2022-11-13T03:11:22.099Z,11.82
2022-11-13T03:13:50.095Z,12.10
2022-11-13T03:16:19.493Z,11.05
2022-11-13T03:18:47.505Z,11.68
2022-11-13T03:21:16.521Z,10.32
2022-11-13T03:23:46.055Z,11.45
2022-11-13T03:26:16.573Z,12.45
2022-11-13T03:28:44.870Z,11.07
2022-11-13T03:31:13.342Z,11.20
2022-11-13T03:33:42.717Z,10.70
2022-11-13T03:36:10.871Z,10.98
2022-11-13T03:38:39.135Z,11.40
2022-11-13T03:41:07.155Z,10.18
2022-11-13T03:43:35.122Z,9.98
2022-11-13T03:46:03.114Z,10.05
2022-11-13T03:48:33.438Z,11.43
2022-11-13T03:51:03.082Z,10.00
2022-11-13T03:53:31.095Z,11.20
2022-11-13T03:55:59.454Z,10.25
2022-11-13T03:58:28.059Z,10.50
2022-11-13T04:00:57.278Z,10.30
2022-11-13T04:03:25.318Z,10.35
2022-11-13T04:05:53.316Z,9.55
2022-11-13T04:08:22.733Z,9.55
2022-11-13T04:10:50.694Z,10.05
2022-11-13T04:13:18.683Z,10.95
2022-11-13T04:15:46.793Z,9.90
2022-11-13T04:18:14.734Z,11.00
2022-11-13T04:20:42.721Z,10.52
2022-11-13T04:23:12.645Z,9.07
2022-11-13T04:25:42.027Z,9.50
2022-11-13T04:28:10.942Z,11.02
2022-11-13T04:30:39.398Z,10.75
2022-11-13T04:33:07.683Z,9.65
2022-11-13T04:35:35.775Z,9.77
2022-11-13T04:38:03.940Z,10.15
2022-11-13T04:40:32.063Z,9.68
2022-11-13T04:43:00.406Z,9.30
2022-11-13T04:45:28.474Z,9.30
2022-11-13T04:47:56.939Z,9.60
2022-11-13T04:50:25.150Z,9.88
2022-11-13T04:52:53.150Z,8.90
2022-11-13T04:55:21.115Z,10.18
2022-11-13T04:57:51.496Z,13.18
2022-11-13T05:00:21.615Z,10.70
2022-11-13T05:02:49.705Z,10.93
2022-11-13T05:05:17.841Z,10.85
2022-11-13T05:07:45.849Z,11.23
2022-11-13T05:10:14.126Z,10.07
2022-11-13T05:12:42.124Z,9.27
2022-11-13T05:15:10.570Z,9.55
2022-11-13T05:17:39.986Z,9.07
2022-11-13T05:20:09.175Z,8.70
2022-11-13T05:22:37.146Z,8.73
2022-11-13T05:25:05.756Z,8.50
2022-11-13T05:27:33.730Z,8.85
2022-11-13T05:30:01.718Z,8.57
2022-11-13T05:32:29.687Z,8.65
2022-11-13T05:34:59.045Z,9.35
2022-11-13T05:37:27.023Z,9.35
2022-11-13T05:39:55.105Z,8.70
2022-11-13T05:42:23.110Z,8.85
2022-11-13T05:44:51.102Z,9.05
2022-11-13T05:47:19.060Z,7.13
2022-11-13T05:49:47.049Z,8.90
2022-11-13T05:52:16.349Z,8.20
2022-11-13T05:54:44.338Z,8.40
2022-11-13T05:57:12.302Z,8.70
2022-11-13T05:59:40.307Z,7.60
2022-11-13T06:02:08.374Z,9.13
2022-11-13T06:04:36.534Z,8.60
2022-11-13T06:07:04.602Z,9.38
2022-11-13T06:09:33.969Z,9.85
2022-11-13T06:12:01.955Z,8.40
2022-11-13T06:14:30.025Z,8.68
2022-11-13T06:16:57.993Z,8.82
2022-11-13T06:19:26.234Z,9.57
2022-11-13T06:21:54.189Z,9.07
2022-11-13T06:24:22.352Z,9.40
2022-11-13T06:26:51.739Z,9.15
2022-11-13T06:29:21.068Z,9.40
2022-11-13T06:31:49.314Z,10.07
2022-11-13T06:34:17.325Z,9.60
2022-11-13T06:36:45.338Z,10.02
2022-11-13T06:39:13.517Z,8.55
2022-11-13T06:41:41.557Z,9.82
2022-11-13T06:44:11.059Z,10.65
2022-11-13T06:46:39.040Z,9.75
2022-11-13T06:49:07.221Z,10.52
2022-11-13T06:51:35.341Z,10.52
2022-11-13T06:54:03.378Z,10.38
2022-11-13T06:56:31.362Z,10.88
2022-11-13T06:58:59.337Z,10.40
2022-11-13T07:01:34.200Z,11.13
2022-11-13T07:04:02.213Z,9.18
2022-11-13T07:06:30.277Z,10.48
2022-11-13T07:08:59.306Z,11.10
2022-11-13T07:11:27.652Z,10.20
2022-11-13T07:13:55.624Z,9.70
2022-11-13T07:16:23.564Z,10.60
2022-11-13T07:18:54.161Z,10.05
2022-11-13T07:21:23.380Z,8.73
2022-11-13T07:23:52.053Z,9.68
2022-11-13T07:26:20.390Z,9.50
2022-11-13T07:28:49.374Z,9.00
2022-11-13T07:31:18.750Z,9.35
2022-11-13T07:33:49.839Z,9.77
2022-11-13T07:36:19.240Z,9.45
2022-11-13T07:38:47.270Z,9.45
2022-11-13T07:41:15.319Z,10.40
2022-11-13T07:43:43.300Z,9.65
2022-11-13T07:46:11.301Z,10.25
2022-11-13T07:48:39.325Z,9.52
2022-11-13T07:51:07.499Z,9.55
2022-11-13T07:53:38.999Z,9.98
2022-11-13T07:56:07.923Z,9.52
2022-11-13T07:58:35.943Z,12.60
2022-11-13T08:01:05.136Z,14.70
2022-11-13T08:03:33.544Z,10.48
2022-11-13T08:06:02.965Z,9.68
2022-11-13T08:08:31.311Z,9.50
2022-11-13T08:11:05.500Z,9.43
2022-11-13T08:13:34.254Z,9.13
2022-11-13T08:16:02.587Z,10.10
2022-11-13T08:18:31.275Z,9.55
2022-11-13T08:21:02.365Z,9.75
2022-11-13T08:23:30.767Z,9.23
2022-11-13T08:26:04.126Z,9.40
2022-11-13T08:28:32.281Z,9.00
2022-11-13T08:31:00.462Z,10.02
2022-11-13T08:33:28.598Z,10.00
2022-11-13T08:35:57.405Z,10.00
2022-11-13T08:38:26.199Z,9.35
2022-11-13T08:40:57.167Z,9.60
2022-11-13T08:43:27.303Z,9.40
2022-11-13T08:45:55.810Z,9.70
2022-11-13T08:48:26.030Z,10.88
2022-11-13T08:50:56.020Z,11.20
2022-11-13T08:53:24.943Z,10.57
2022-11-13T08:55:53.179Z,12.63
2022-11-13T08:58:21.179Z,12.18
2022-11-13T09:00:50.485Z,12.07
2022-11-13T09:03:18.556Z,11.00
2022-11-13T09:05:46.632Z,10.68
2022-11-13T09:08:14.611Z,11.57
2022-11-13T09:10:44.334Z,11.77
2022-11-13T09:13:13.090Z,11.73
2022-11-13T09:15:42.181Z,11.20
2022-11-13T09:18:12.138Z,11.75
2022-11-13T09:20:40.148Z,11.95
2022-11-13T09:23:09.299Z,11.10
2022-11-13T09:25:38.421Z,12.07
2022-11-13T09:28:07.777Z,12.43
2022-11-13T09:30:35.856Z,11.07
2022-11-13T09:33:04.303Z,10.32
2022-11-13T09:35:37.266Z,10.75
2022-11-13T09:38:11.475Z,10.80
2022-11-13T09:40:44.283Z,9.57
2022-11-13T09:43:28.290Z,9.00
2022-11-13T09:46:03.203Z,9.87
2022-11-13T09:48:37.066Z,9.43
2022-11-13T09:51:13.708Z,8.80
2022-11-13T09:53:42.318Z,9.75
2022-11-13T09:56:30.507Z,8.45
2022-11-13T09:59:15.043Z,8.93
2022-11-13T10:01:50.808Z,9.07
2022-11-13T10:04:33.065Z,8.20
2022-11-13T10:07:14.560Z,8.80
2022-11-13T10:09:59.401Z,8.95
2022-11-13T10:12:29.724Z,8.10
2022-11-13T10:15:01.738Z,9.20
2022-11-13T10:17:34.464Z,7.43
2022-11-13T10:20:05.594Z,7.87
2022-11-13T10:22:39.912Z,8.07
2022-11-13T10:25:13.611Z,7.13
2022-11-13T10:27:41.705Z,7.70
2022-11-13T10:30:16.929Z,8.20
2022-11-13T10:32:45.837Z,6.63
2022-11-13T10:35:45.566Z,7.57
2022-11-13T10:38:22.919Z,22.97
2022-11-13T10:40:50.960Z,18.30
2022-11-13T10:43:21.372Z,18.23
2022-11-13T10:45:57.822Z,7.30
2022-11-13T10:48:28.488Z,6.57
2022-11-13T10:50:58.603Z,6.43
2022-11-13T10:53:34.248Z,7.07
2022-11-13T10:56:02.371Z,5.43
2022-11-13T10:58:30.616Z,5.60
2022-11-13T11:00:58.731Z,6.33
2022-11-13T11:03:29.345Z,6.73
2022-11-13T11:06:00.095Z,5.83
2022-11-13T11:08:34.789Z,6.30
2022-11-13T11:11:22.228Z,6.63
2022-11-13T11:13:50.308Z,6.10
2022-11-13T11:16:22.341Z,6.53
2022-11-13T11:18:55.027Z,6.20
2022-11-13T11:21:27.628Z,6.80
2022-11-13T11:24:02.143Z,7.00
2022-11-13T11:26:34.991Z,6.50
2022-11-13T11:29:15.707Z,6.30
2022-11-13T11:31:50.939Z,5.83
2022-11-13T11:34:24.978Z,6.57
2022-11-13T11:36:59.519Z,5.43
2022-11-13T11:39:36.545Z,6.27
2022-11-13T11:42:23.492Z,7.17
2022-11-13T11:45:04.854Z,6.20
2022-11-13T11:47:34.487Z,6.27
2022-11-13T11:50:03.330Z,6.17
2022-11-13T11:52:51.424Z,6.20
2022-11-13T11:55:38.795Z,6.73
2022-11-13T11:58:18.334Z,6.27
2022-11-13T12:00:51.309Z,5.93
2022-11-13T12:03:56.332Z,6.27
2022-11-13T12:06:38.990Z,6.20
2022-11-13T12:09:17.394Z,5.10
2022-11-13T12:11:53.716Z,6.20
2022-11-13T12:14:30.829Z,6.10
2022-11-13T12:17:17.608Z,5.20
2022-11-13T12:19:57.207Z,4.70
2022-11-13T12:22:46.509Z,4.70
2022-11-13T12:25:22.299Z,4.90
2022-11-13T12:27:59.301Z,6.20
2022-11-13T12:30:36.192Z,5.60
2022-11-13T12:33:12.715Z,5.43
2022-11-13T12:35:41.431Z,5.13
2022-11-13T12:38:18.210Z,5.57
2022-11-13T12:40:52.500Z,5.47
2022-11-13T12:43:47.862Z,5.80
2022-11-13T12:46:16.290Z,5.27
2022-11-13T12:48:46.199Z,5.57
2022-11-13T12:51:16.038Z,5.30
2022-11-13T12:53:47.269Z,5.97
2022-11-13T12:56:18.080Z,5.60
2022-11-13T12:59:28.712Z,5.73
2022-11-13T13:01:51.595Z,5.77
2022-11-13T13:04:38.641Z,5.20
2022-11-13T13:07:19.321Z,4.93
2022-11-13T13:09:59.785Z,5.87
2022-11-13T13:12:41.323Z,5.53
2022-11-13T13:15:19.322Z,4.93
2022-11-13T13:17:47.350Z,6.03
2022-11-13T13:20:36.186Z,5.50
2022-11-13T13:23:08.398Z,5.63
2022-11-13T13:25:37.558Z,5.40
2022-11-13T13:28:21.339Z,5.90
2022-11-13T13:30:57.983Z,5.50
2022-11-13T13:33:33.541Z,5.60
2022-11-13T13:36:12.157Z,6.23
2022-11-13T13:38:51.944Z,8.73
2022-11-13T13:41:29.449Z,9.63
2022-11-13T13:44:13.746Z,8.70
2022-11-13T13:46:43.534Z,7.87
2022-11-13T13:49:16.363Z,11.17
2022-11-13T13:51:46.753Z,9.00
2022-11-13T13:54:19.773Z,7.90
2022-11-13T13:56:48.074Z,9.90
2022-11-13T13:59:18.886Z,8.63
2022-11-13T14:01:58.410Z,6.70
2022-11-13T14:04:29.818Z,6.00
2022-11-13T14:06:59.667Z,5.90
2022-11-13T14:09:29.552Z,6.43
2022-11-13T14:12:00.563Z,6.33
2022-11-13T14:14:29.721Z,6.13
2022-11-13T14:17:01.696Z,6.93
2022-11-13T14:19:29.698Z,7.13
2022-11-13T14:22:00.212Z,5.50
2022-11-13T14:24:33.779Z,5.70
2022-11-13T14:27:05.874Z,6.50
2022-11-13T14:29:36.717Z,6.10
2022-11-13T14:32:10.879Z,5.90
2022-11-13T14:34:43.783Z,6.10
2022-11-13T14:37:23.568Z,6.67
2022-11-13T14:39:53.003Z,6.20
2022-11-13T14:42:23.756Z,5.90
2022-11-13T14:44:51.892Z,5.93
2022-11-13T14:47:26.016Z,5.97
2022-11-13T14:49:54.006Z,5.30
2022-11-13T14:52:26.685Z,5.60
2022-11-13T14:55:15.240Z,5.47
2022-11-13T14:57:49.424Z,5.13
2022-11-13T15:00:18.455Z,5.37
2022-11-13T15:02:47.885Z,6.00
2022-11-13T15:05:16.335Z,6.70
2022-11-13T15:07:46.618Z,6.10
2022-11-13T15:10:17.507Z,6.80
2022-11-13T15:12:45.590Z,5.77
2022-11-13T15:15:16.939Z,5.87
2022-11-13T15:17:45.649Z,6.47
2022-11-13T15:20:18.095Z,6.90
2022-11-13T15:22:46.198Z,6.93
2022-11-13T15:25:15.783Z,7.50
2022-11-13T15:27:43.804Z,6.50
2022-11-13T15:30:13.095Z,6.20
2022-11-13T15:32:41.112Z,5.70
2022-11-13T15:35:15.477Z,6.93
2022-11-13T15:37:45.350Z,7.70
2022-11-13T15:40:14.479Z,7.80
2022-11-13T15:42:43.767Z,7.57
2022-11-13T15:45:15.589Z,7.20
2022-11-13T15:47:43.930Z,9.07
2022-11-13T15:50:14.954Z,12.20
2022-11-13T15:52:47.537Z,12.20
2022-11-13T15:55:27.033Z,11.33
2022-11-13T15:57:55.864Z,11.40
2022-11-13T16:00:26.204Z,11.37
2022-11-13T16:02:55.772Z,9.60
2022-11-13T16:05:25.527Z,11.17
2022-11-13T16:07:55.502Z,8.10
2022-11-13T16:10:25.090Z,7.80
2022-11-13T16:12:53.706Z,7.17
2022-11-13T16:15:21.814Z,7.10
2022-11-13T16:17:53.462Z,6.70
2022-11-13T16:20:21.606Z,7.25
2022-11-13T16:22:49.714Z,7.22
2022-11-13T16:25:20.846Z,7.53
2022-11-13T16:27:48.994Z,8.00
2022-11-13T16:30:20.051Z,9.00
2022-11-13T16:32:48.855Z,8.40
2022-11-13T16:35:18.505Z,11.30
2022-11-13T16:37:46.520Z,10.13
2022-11-13T16:40:21.228Z,9.68
2022-11-13T16:42:49.239Z,10.27
2022-11-13T16:45:18.686Z,9.50
2022-11-13T16:47:47.385Z,9.75
2022-11-13T16:50:17.108Z,9.07
2022-11-13T16:52:45.339Z,11.60
2022-11-13T16:55:13.553Z,11.23
2022-11-13T16:57:43.070Z,11.73
2022-11-13T17:00:19.587Z,10.25
2022-11-13T17:02:55.381Z,11.48
2022-11-13T17:05:24.837Z,9.20
2022-11-13T17:07:58.657Z,10.35
2022-11-13T17:10:31.798Z,9.15
2022-11-13T17:13:01.968Z,9.83
2022-11-13T17:15:30.032Z,11.10
2022-11-13T17:17:59.184Z,11.25
2022-11-13T17:20:27.908Z,11.63
2022-11-13T17:22:56.894Z,11.90
2022-11-13T17:25:28.308Z,11.80
2022-11-13T17:27:58.980Z,11.95
2022-11-13T17:30:33.104Z,11.20
2022-11-13T17:33:02.903Z,11.32
2022-11-13T17:35:33.505Z,18.17
2022-11-13T17:38:02.726Z,15.40
2022-11-13T17:40:31.819Z,12.52
2022-11-13T17:42:59.914Z,9.70
2022-11-13T17:45:27.862Z,8.32
2022-11-13T17:47:57.221Z,9.25
2022-11-13T17:50:25.273Z,9.45
2022-11-13T17:52:53.333Z,9.80
2022-11-13T17:55:21.346Z,10.65
2022-11-13T17:57:49.315Z,10.20
2022-11-13T18:00:18.626Z,11.80
2022-11-13T18:02:46.878Z,11.70
2022-11-13T18:05:16.374Z,12.85
2022-11-13T18:07:44.337Z,12.07
2022-11-13T18:10:12.295Z,11.77
2022-11-13T18:12:40.312Z,13.77
2022-11-13T18:15:10.209Z,13.52
2022-11-13T18:17:38.201Z,16.58
2022-11-13T18:20:07.055Z,16.88
2022-11-13T18:22:36.536Z,16.58
2022-11-13T18:25:05.273Z,20.23
2022-11-13T18:27:33.295Z,16.55
2022-11-13T18:30:01.259Z,15.07
2022-11-13T18:32:29.348Z,15.45
2022-11-13T18:34:57.336Z,17.98
2022-11-13T18:37:25.522Z,17.25
2022-11-13T18:39:54.936Z,16.20
2022-11-13T18:42:22.936Z,17.02
2022-11-13T18:45:03.070Z,15.85
2022-11-13T18:47:33.840Z,16.70
2022-11-13T18:50:01.900Z,19.80
2022-11-13T18:52:30.936Z,18.45
2022-11-13T18:55:02.114Z,25.48
2022-11-13T18:57:31.586Z,20.13
2022-11-13T19:00:00.920Z,18.20
2022-11-13T19:02:30.823Z,17.17
2022-11-13T19:05:03.168Z,17.50
2022-11-13T19:07:31.430Z,18.73
2022-11-13T19:10:00.738Z,22.98
2022-11-13T19:12:28.734Z,23.55
2022-11-13T19:14:56.756Z,21.13
2022-11-13T19:17:24.733Z,20.60
2022-11-13T19:19:52.745Z,19.13
2022-11-13T19:22:20.739Z,19.80
2022-11-13T19:24:48.720Z,20.48
2022-11-13T19:27:18.031Z,19.65
2022-11-13T19:29:46.025Z,21.67
2022-11-13T19:32:14.031Z,20.55
2022-11-13T19:34:46.224Z,19.70
2022-11-13T19:37:18.916Z,22.35
2022-11-13T19:39:47.993Z,22.00
2022-11-13T19:42:17.340Z,20.70
2022-11-13T19:44:45.268Z,20.65
2022-11-13T19:47:13.254Z,19.88
2022-11-13T19:49:41.304Z,19.65
2022-11-13T19:52:09.303Z,21.80
2022-11-13T19:54:37.313Z,21.90
2022-11-13T19:57:05.308Z,20.35
2022-11-13T19:59:34.700Z,20.35
2022-11-13T20:02:02.754Z,21.98
2022-11-13T20:04:31.026Z,28.05
2022-11-13T20:06:59.066Z,23.40
2022-11-13T20:09:27.127Z,20.90
2022-11-13T20:11:55.147Z,19.27
2022-11-13T20:14:23.155Z,19.75
2022-11-13T20:16:52.539Z,20.80
2022-11-13T20:19:20.508Z,22.00
2022-11-13T20:21:48.538Z,23.60
2022-11-13T20:24:16.616Z,30.60
2022-11-13T20:26:44.695Z,29.83
2022-11-13T20:29:12.696Z,26.10
2022-11-13T20:31:40.692Z,22.95
2022-11-13T20:34:10.240Z,23.77
2022-11-13T20:36:38.206Z,20.00
2022-11-13T20:39:09.352Z,19.30
2022-11-13T20:41:37.787Z,19.23
2022-11-13T20:44:06.110Z,21.38
2022-11-13T20:46:34.074Z,22.73
2022-11-13T20:49:02.178Z,22.77
2022-11-13T20:51:32.208Z,20.65
2022-11-13T20:54:00.593Z,18.38
2022-11-13T20:56:28.620Z,17.98
2022-11-13T20:58:56.755Z,16.55
2022-11-13T21:01:26.692Z,16.75
2022-11-13T21:03:56.010Z,20.52
2022-11-13T21:06:25.775Z,16.75
2022-11-13T21:08:56.411Z,15.48
2022-11-13T21:11:26.334Z,13.52
2022-11-13T21:13:55.518Z,12.82
2022-11-13T21:16:24.101Z,13.07
2022-11-13T21:18:52.551Z,12.18
2022-11-13T21:21:22.596Z,12.60
2022-11-13T21:23:50.807Z,12.00
2022-11-13T21:26:20.229Z,10.82
2022-11-13T21:28:48.218Z,12.10
2022-11-13T21:31:19.140Z,11.45
2022-11-13T21:33:48.083Z,11.63
2022-11-13T21:36:17.672Z,13.82
2022-11-13T21:38:45.919Z,13.25
2022-11-13T21:41:24.957Z,12.23
2022-11-13T21:43:58.066Z,12.05
2022-11-13T21:46:27.953Z,12.15
2022-11-13T21:48:57.726Z,11.68
2022-11-13T21:51:25.718Z,12.15
2022-11-13T21:53:53.967Z,15.95
2022-11-13T21:56:22.187Z,18.42
2022-11-13T21:58:50.162Z,17.60
2022-11-13T22:01:19.830Z,16.02
2022-11-13T22:03:47.935Z,17.17
2022-11-13T22:06:18.149Z,13.80
2022-11-13T22:08:48.662Z,13.27
2022-11-13T22:11:16.660Z,11.68
2022-11-13T22:13:44.869Z,11.05
2022-11-13T22:16:13.539Z,11.88
2022-11-13T22:18:42.878Z,11.25
2022-11-13T22:21:13.405Z,11.73
2022-11-13T22:23:41.804Z,12.07
2022-11-13T22:26:11.466Z,13.40
2022-11-13T22:28:42.729Z,11.65
2022-11-13T22:31:15.235Z,11.55
2022-11-13T22:33:48.807Z,11.13
2022-11-13T22:36:20.399Z,12.30
2022-11-13T22:38:49.036Z,11.80
2022-11-13T22:41:23.017Z,12.02
2022-11-13T22:43:53.469Z,12.73
2022-11-13T22:46:23.900Z,12.02
2022-11-13T22:48:54.821Z,11.88
2022-11-13T22:51:24.464Z,12.52
2022-11-13T22:53:54.054Z,13.45
2022-11-13T22:56:23.425Z,11.90
2022-11-13T22:58:52.890Z,12.23
2022-11-13T23:01:22.924Z,12.80
2022-11-13T23:03:53.655Z,11.80
2022-11-13T23:06:24.755Z,9.27
2022-11-13T23:08:53.460Z,11.80
2022-11-13T23:11:24.021Z,11.57
2022-11-13T23:13:53.901Z,12.10
2022-11-13T23:16:22.840Z,12.57
2022-11-13T23:18:51.403Z,11.68
2022-11-13T23:21:21.134Z,12.82
2022-11-13T23:23:49.395Z,11.27
2022-11-13T23:26:18.619Z,14.00
2022-11-13T23:28:46.775Z,12.55
2022-11-13T23:31:15.273Z,11.70
2022-11-13T23:33:43.269Z,11.95
2022-11-13T23:36:12.941Z,10.57
2022-11-13T23:38:42.936Z,10.18
2022-11-13T23:41:12.036Z,11.63
2022-11-13T23:44:09.861Z,10.43
2022-11-13T23:46:28.013Z,11.43
2022-11-13T23:48:56.095Z,11.30
2022-11-13T23:51:24.150Z,11.30
2022-11-13T23:53:53.503Z,10.70
2022-11-13T23:56:21.683Z,10.30
2022-11-13T23:58:49.687Z,11.20
